createdAt,value
2022-09-07T00:00:53.850Z,2.72
2022-09-07T00:03:22.383Z,2.80
2022-09-07T00:05:52.357Z,3.00
2022-09-07T00:08:22.895Z,3.20
2022-09-07T00:10:59.197Z,2.90
2022-09-07T00:13:29.624Z,3.25
2022-09-07T00:15:57.816Z,2.90
2022-09-07T00:18:25.778Z,2.80
2022-09-07T00:21:05.868Z,2.88
2022-09-07T00:23:34.300Z,2.80
2022-09-07T00:26:04.150Z,3.00
2022-09-07T00:28:32.083Z,3.05
2022-09-07T00:30:59.641Z,3.63
2022-09-07T00:33:27.454Z,3.17
2022-09-07T00:35:55.838Z,3.25
2022-09-07T00:38:23.112Z,3.28
2022-09-07T00:40:50.472Z,2.53
2022-09-07T00:43:34.702Z,3.05
2022-09-07T00:46:04.275Z,3.00
2022-09-07T00:48:39.850Z,2.97
2022-09-07T00:51:11.001Z,3.40
2022-09-07T00:53:46.895Z,3.60
2022-09-07T00:56:14.608Z,3.20
2022-09-07T00:58:43.637Z,2.50
2022-09-07T01:01:12.021Z,2.55
2022-09-07T01:03:45.146Z,2.10
2022-09-07T01:06:18.801Z,2.05
2022-09-07T01:08:49.797Z,2.40
2022-09-07T01:11:22.188Z,2.13
2022-09-07T01:13:51.396Z,2.45
2022-09-07T01:16:33.769Z,2.00
2022-09-07T01:19:28.963Z,2.17
2022-09-07T01:22:14.802Z,1.90
2022-09-07T01:24:42.390Z,1.95
2022-09-07T01:27:39.249Z,2.20
2022-09-07T01:30:09.372Z,1.77
2022-09-07T01:33:00.682Z,2.20
2022-09-07T01:35:52.667Z,2.00
2022-09-07T01:38:30.120Z,1.73
2022-09-07T01:41:02.110Z,1.50
2022-09-07T01:43:45.331Z,1.80
2022-09-07T01:46:37.359Z,1.65
2022-09-07T01:49:24.861Z,1.90
2022-09-07T01:51:58.449Z,1.67
2022-09-07T01:54:32.722Z,1.80
2022-09-07T02:00:09.331Z,1.60
2022-09-07T02:03:00.051Z,1.67
2022-09-07T02:05:54.652Z,1.40
2022-09-07T02:08:32.189Z,1.80
2022-09-07T02:11:17.137Z,1.33
2022-09-07T02:14:17.360Z,1.50
2022-09-07T02:17:09.422Z,1.70
2022-09-07T02:19:44.024Z,1.55
2022-09-07T02:22:16.988Z,1.63
2022-09-07T02:24:53.033Z,1.50
2022-09-07T02:31:31.606Z,1.40
2022-09-07T02:34:01.982Z,1.52
2022-09-07T02:36:33.523Z,1.88
2022-09-07T02:39:00.915Z,1.60
2022-09-07T02:41:41.926Z,1.67
2022-09-07T02:44:18.479Z,1.50
2022-09-07T02:47:24.895Z,1.48
2022-09-07T02:55:07.330Z,1.50
2022-09-07T02:58:15.027Z,1.33
2022-09-07T03:01:04.095Z,2.20
2022-09-07T03:07:50.752Z,1.80
2022-09-07T03:10:19.029Z,1.65
2022-09-07T03:12:48.939Z,1.60
2022-09-07T03:15:19.751Z,1.70
2022-09-07T03:17:47.219Z,1.50
2022-09-07T03:20:17.179Z,1.80
2022-09-07T03:22:45.740Z,1.80
2022-09-07T03:25:13.753Z,1.73
2022-09-07T03:27:41.313Z,2.05
2022-09-07T03:30:10.575Z,1.70
2022-09-07T03:32:39.236Z,1.70
2022-09-07T03:35:08.727Z,1.90
2022-09-07T03:42:36.045Z,2.00
2022-09-07T03:45:17.426Z,1.88
2022-09-07T03:52:50.236Z,1.63
2022-09-07T04:15:29.718Z,1.98
2022-09-07T04:21:19.274Z,2.42
2022-09-07T04:46:37.307Z,2.53
2022-09-07T04:52:40.320Z,2.30
2022-09-07T04:56:15.016Z,2.67
2022-09-07T05:31:50.905Z,3.00
2022-09-07T05:39:06.765Z,2.83
2022-09-07T05:50:16.155Z,3.50
2022-09-07T06:01:25.480Z,2.92
2022-09-07T06:04:15.197Z,3.88
2022-09-07T06:07:17.679Z,3.92
2022-09-07T06:12:28.515Z,4.22
2022-09-07T06:14:56.413Z,4.10
2022-09-07T06:17:30.806Z,4.28
2022-09-07T06:19:58.277Z,4.25
2022-09-07T06:22:30.104Z,4.22
2022-09-07T06:24:58.284Z,4.60
2022-09-07T06:27:25.727Z,4.72
2022-09-07T06:29:53.290Z,4.75
2022-09-07T06:35:09.337Z,5.85
2022-09-07T06:37:37.067Z,4.82
2022-09-07T06:40:08.434Z,4.97
2022-09-07T06:42:36.057Z,5.60
2022-09-07T06:45:04.332Z,5.82
2022-09-07T06:47:31.651Z,5.55
2022-09-07T06:49:59.158Z,5.80
2022-09-07T06:52:27.123Z,5.30
2022-09-07T06:57:24.863Z,5.15
2022-09-07T06:59:52.148Z,5.45
2022-09-07T07:02:19.538Z,4.95
2022-09-07T07:04:47.006Z,5.65
2022-09-07T07:07:14.645Z,6.40
2022-09-07T07:09:42.498Z,6.90
2022-09-07T07:12:11.035Z,6.97
2022-09-07T07:14:43.968Z,6.03
2022-09-07T07:17:12.837Z,6.53
2022-09-07T07:19:40.329Z,7.63
2022-09-07T07:22:35.992Z,7.22
2022-09-07T07:24:55.415Z,7.43
2022-09-07T07:27:22.834Z,7.30
2022-09-07T07:29:50.575Z,7.78
2022-09-07T07:32:22.817Z,7.57
2022-09-07T07:35:08.723Z,7.43
2022-09-07T07:37:37.821Z,7.65
2022-09-07T07:40:16.989Z,8.32
2022-09-07T07:42:46.769Z,7.22
2022-09-07T07:48:02.751Z,8.60
2022-09-07T07:50:30.952Z,8.20
2022-09-07T07:55:46.741Z,8.88
2022-09-07T07:58:14.182Z,8.85
2022-09-07T08:00:54.456Z,8.75
2022-09-07T08:03:23.983Z,10.27
2022-09-07T08:05:52.216Z,8.93
2022-09-07T08:08:19.782Z,9.95
2022-09-07T08:10:48.210Z,10.70
2022-09-07T08:13:16.696Z,10.98
2022-09-07T08:15:46.880Z,9.18
2022-09-07T08:18:16.238Z,9.82
2022-09-07T08:20:44.335Z,10.05
2022-09-07T08:23:12.035Z,9.63
2022-09-07T08:25:48.933Z,10.68
2022-09-07T08:28:16.470Z,9.77
2022-09-07T08:30:43.813Z,10.20
2022-09-07T08:33:11.259Z,9.50
2022-09-07T08:35:38.674Z,10.15
2022-09-07T08:38:06.139Z,10.80
2022-09-07T08:40:36.999Z,9.82
2022-09-07T08:43:23.658Z,10.02
2022-09-07T08:45:54.619Z,10.27
2022-09-07T08:48:29.549Z,10.82
2022-09-07T08:51:24.301Z,10.98
2022-09-07T08:56:36.679Z,10.85
2022-09-07T08:59:16.670Z,10.73
2022-09-07T09:02:26.582Z,9.98
2022-09-07T09:04:32.417Z,10.10
2022-09-07T09:07:28.006Z,10.45
2022-09-07T09:10:16.293Z,10.00
2022-09-07T09:12:43.919Z,10.25
2022-09-07T09:15:31.054Z,9.75
2022-09-07T09:18:19.480Z,9.50
2022-09-07T09:20:50.522Z,10.07
2022-09-07T09:23:20.406Z,9.77
2022-09-07T09:25:54.762Z,9.85
2022-09-07T09:28:22.936Z,9.48
2022-09-07T09:30:50.859Z,9.48
2022-09-07T09:33:26.760Z,9.43
2022-09-07T09:35:57.170Z,10.35
2022-09-07T09:38:45.592Z,9.27
2022-09-07T09:41:14.991Z,8.55
2022-09-07T09:43:52.953Z,8.10
2022-09-07T09:46:31.341Z,8.88
2022-09-07T09:49:06.216Z,8.15
2022-09-07T09:54:33.666Z,7.82
2022-09-07T09:57:01.170Z,8.02
2022-09-07T10:05:34.455Z,6.90
2022-09-07T10:08:02.879Z,6.35
2022-09-07T10:10:31.587Z,5.35
2022-09-07T10:12:59.448Z,4.47
2022-09-07T10:15:33.674Z,4.60
2022-09-07T10:18:06.697Z,3.92
2022-09-07T10:20:38.127Z,4.50
2022-09-07T10:23:18.225Z,3.70
2022-09-07T10:25:45.936Z,3.42
2022-09-07T10:37:39.243Z,2.55
2022-09-07T10:40:49.229Z,2.50
2022-09-07T10:43:25.730Z,2.53
2022-09-07T11:00:11.320Z,2.20
2022-09-07T11:20:43.696Z,2.15
2022-09-07T11:37:13.426Z,2.50
2022-09-07T11:49:13.295Z,1.92
2022-09-07T12:01:37.222Z,2.40
2022-09-07T12:30:37.450Z,2.40
2022-09-07T12:38:18.248Z,2.70
2022-09-07T12:45:29.341Z,2.40
2022-09-07T12:47:59.608Z,2.42
2022-09-07T12:58:25.270Z,2.17
2022-09-07T13:01:10.022Z,2.35
2022-09-07T13:04:11.213Z,2.22
2022-09-07T13:07:05.898Z,2.40
2022-09-07T13:15:50.644Z,2.50
2022-09-07T13:18:30.018Z,2.55
2022-09-07T13:21:09.754Z,2.15
2022-09-07T13:23:48.994Z,2.40
2022-09-07T13:26:58.946Z,2.33
2022-09-07T13:29:52.113Z,2.00
2022-09-07T13:35:24.963Z,1.50
2022-09-07T13:37:56.535Z,1.67
2022-09-07T13:40:30.869Z,1.90
2022-09-07T13:42:59.429Z,1.63
2022-09-07T13:45:46.964Z,1.77
2022-09-07T13:48:46.426Z,1.63
2022-09-07T13:51:37.932Z,1.45
2022-09-07T13:54:39.669Z,1.50
2022-09-07T13:57:32.097Z,1.95
2022-09-07T13:59:59.861Z,1.80
2022-09-07T14:02:39.902Z,1.52
2022-09-07T14:05:10.618Z,1.52
2022-09-07T14:07:45.663Z,1.45
2022-09-07T14:10:25.058Z,1.73
2022-09-07T14:13:07.957Z,1.67
2022-09-07T14:15:45.259Z,1.50
2022-09-07T14:18:30.400Z,1.30
2022-09-07T14:20:58.805Z,1.40
2022-09-07T14:23:32.852Z,1.30
2022-09-07T14:26:22.462Z,1.40
2022-09-07T14:28:53.271Z,1.55
2022-09-07T14:31:23.052Z,1.33
2022-09-07T14:33:53.922Z,2.35
2022-09-07T14:36:44.063Z,2.00
2022-09-07T14:39:15.822Z,1.85
2022-09-07T14:41:44.249Z,2.60
2022-09-07T14:44:27.907Z,3.00
2022-09-07T14:46:57.212Z,2.42
2022-09-07T14:49:25.312Z,2.67
2022-09-07T14:51:54.761Z,3.95
2022-09-07T14:54:29.023Z,6.13
2022-09-07T14:57:28.388Z,4.85
2022-09-07T14:59:57.336Z,2.70
2022-09-07T15:02:37.434Z,2.00
2022-09-07T15:05:27.749Z,1.58
2022-09-07T15:08:07.488Z,2.25
2022-09-07T15:10:41.298Z,2.28
2022-09-07T15:13:37.361Z,3.20
2022-09-07T15:16:31.963Z,2.10
2022-09-07T15:27:12.449Z,3.20
2022-09-07T16:09:10.402Z,1.80
2022-09-07T16:15:39.326Z,1.80
2022-09-07T16:18:31.763Z,1.60
2022-09-07T16:21:26.561Z,1.50
2022-09-07T16:24:19.514Z,1.70
2022-09-07T16:27:52.304Z,2.38
2022-09-07T16:30:56.941Z,3.08
2022-09-07T16:34:16.774Z,2.95
2022-09-07T16:46:10.016Z,1.90
2022-09-07T16:49:21.201Z,2.70
2022-09-07T16:52:11.086Z,2.20
2022-09-07T16:54:54.542Z,1.98
2022-09-07T17:00:42.914Z,3.20
2022-09-07T17:03:17.347Z,2.28
2022-09-07T17:06:05.911Z,2.80
2022-09-07T17:09:11.580Z,2.00
2022-09-07T17:11:44.949Z,2.05
2022-09-07T17:14:16.333Z,2.57
2022-09-07T17:16:55.322Z,2.47
2022-09-07T17:19:47.861Z,2.75
2022-09-07T17:22:33.421Z,2.50
2022-09-07T17:25:24.073Z,2.50
2022-09-07T17:32:23.843Z,2.42
2022-09-07T17:34:20.223Z,2.63
2022-09-07T17:37:14.934Z,2.90
2022-09-07T17:39:46.258Z,3.38
2022-09-07T17:42:21.298Z,2.40
2022-09-07T17:45:09.872Z,2.78
2022-09-07T17:47:50.873Z,2.67
2022-09-07T17:50:21.085Z,2.65
2022-09-07T17:53:11.982Z,2.15
2022-09-07T17:55:44.804Z,2.50
2022-09-07T17:58:12.337Z,2.42
2022-09-07T18:00:40.162Z,2.63
2022-09-07T18:03:07.850Z,2.40
2022-09-07T18:05:37.716Z,2.40
2022-09-07T18:08:05.626Z,2.20
2022-09-07T18:13:35.017Z,2.05
2022-09-07T18:16:24.859Z,2.50
2022-09-07T18:18:56.106Z,2.40
2022-09-07T18:21:30.793Z,2.28
2022-09-07T18:24:01.219Z,2.33
2022-09-07T18:26:28.893Z,2.45
2022-09-07T18:29:04.810Z,2.25
2022-09-07T18:31:37.014Z,1.98
2022-09-07T18:36:58.323Z,2.38
2022-09-07T18:39:36.649Z,2.05
2022-09-07T18:42:04.598Z,1.90
2022-09-07T18:47:27.996Z,2.22
2022-09-07T18:49:57.239Z,1.90
2022-09-07T18:55:29.880Z,1.77
2022-09-07T18:58:11.879Z,2.03
2022-09-07T19:00:47.606Z,2.10
2022-09-07T19:03:15.226Z,2.00
2022-09-07T19:05:51.716Z,2.05
2022-09-07T19:08:19.954Z,2.20
2022-09-07T19:10:47.323Z,1.83
2022-09-07T19:13:14.716Z,2.03
2022-09-07T19:15:42.009Z,2.05
2022-09-07T19:18:09.696Z,2.20
2022-09-07T19:20:37.095Z,2.35
2022-09-07T19:23:05.072Z,2.10
2022-09-07T19:25:32.372Z,2.08
2022-09-07T19:27:59.680Z,2.25
2022-09-07T19:30:27.900Z,2.50
2022-09-07T19:32:55.181Z,2.38
2022-09-07T19:35:22.550Z,1.90
2022-09-07T19:37:49.928Z,2.10
2022-09-07T19:40:19.391Z,1.73
2022-09-07T19:42:46.939Z,1.98
2022-09-07T19:45:15.120Z,2.08
2022-09-07T19:47:42.442Z,2.15
2022-09-07T19:50:09.906Z,2.63
2022-09-07T19:52:37.175Z,2.25
2022-09-07T19:55:04.905Z,2.47
2022-09-07T19:57:32.301Z,2.60
2022-09-07T20:00:00.323Z,2.50
2022-09-07T20:02:27.687Z,2.70
2022-09-07T20:04:55.623Z,2.13
2022-09-07T20:07:23.289Z,2.35
2022-09-07T20:09:51.752Z,2.20
2022-09-07T20:12:19.305Z,2.33
2022-09-07T20:14:46.713Z,2.35
2022-09-07T20:17:22.362Z,1.85
2022-09-07T20:19:51.607Z,2.25
2022-09-07T20:22:19.249Z,1.88
2022-09-07T20:24:47.115Z,1.88
2022-09-07T20:27:17.022Z,2.50
2022-09-07T20:29:46.053Z,2.30
2022-09-07T20:32:22.976Z,2.33
2022-09-07T20:53:14.319Z,2.20
2022-09-07T21:01:09.052Z,2.78
2022-09-07T21:03:00.861Z,2.33
2022-09-07T21:05:41.555Z,2.17
2022-09-07T21:08:09.684Z,2.42
2022-09-07T21:10:41.585Z,2.45
2022-09-07T21:14:23.926Z,2.28
2022-09-07T21:17:19.899Z,1.92
2022-09-07T21:23:33.653Z,2.17
2022-09-07T21:26:12.363Z,2.20
2022-09-07T21:29:19.878Z,2.50
2022-09-07T21:32:31.569Z,2.10
2022-09-07T21:35:52.454Z,2.10
2022-09-07T21:38:34.479Z,2.30
2022-09-07T21:41:19.037Z,2.40
2022-09-07T21:44:15.618Z,2.10
2022-09-07T21:46:51.916Z,2.33
2022-09-07T21:49:31.762Z,2.08
2022-09-07T21:52:31.735Z,2.25
2022-09-07T21:55:11.903Z,2.55
2022-09-07T21:58:11.940Z,2.40
2022-09-07T22:05:05.944Z,2.35
2022-09-07T22:08:01.751Z,2.17
2022-09-07T22:10:41.591Z,2.50
2022-09-07T22:17:04.997Z,2.72
2022-09-07T22:19:51.991Z,2.58
2022-09-07T22:22:25.028Z,2.13
2022-09-07T22:25:27.813Z,2.45
2022-09-07T22:28:32.913Z,2.50
2022-09-07T22:31:36.826Z,2.28
2022-09-07T22:34:10.819Z,2.25
2022-09-07T22:36:52.891Z,2.40
2022-09-07T22:39:46.845Z,2.25
2022-09-07T22:42:22.132Z,2.13
2022-09-07T22:45:55.662Z,2.33
2022-09-07T22:49:15.369Z,2.40
2022-09-07T22:51:33.529Z,2.65
2022-09-07T22:55:06.078Z,2.45
2022-09-07T22:57:53.169Z,2.47
2022-09-07T23:02:53.606Z,2.40
2022-09-07T23:05:24.479Z,2.30
2022-09-07T23:08:32.037Z,2.55
2022-09-07T23:14:20.471Z,2.50
2022-09-07T23:17:15.063Z,2.70
2022-09-07T23:19:45.585Z,3.20
2022-09-07T23:22:18.117Z,2.78
2022-09-07T23:25:09.998Z,2.70
2022-09-07T23:27:45.543Z,2.10
2022-09-07T23:33:33.227Z,2.88
2022-09-07T23:36:18.451Z,2.40
2022-09-07T23:38:55.816Z,2.40
2022-09-07T23:41:37.632Z,3.00
2022-09-07T23:44:25.230Z,2.50
2022-09-07T23:55:04.946Z,2.50
2022-09-07T23:57:42.851Z,2.53
